Terminal Aerodrome Forecast
Issued by NWS Omaha/Valley, NE

Home | Current Version | Previous Version | Graphics & Text | Print | Product List | Glossary On
Versions: 1 2 3 4 5 6 7 8 9 10 11 12 13 14 15 16 17 18 19 20 21 22 23 24 25 26 27 28 29 30 31 32 33 34 35 36
000
FTUS43 KOAX 162322
TAFOFK
TAF
KOFK 162322Z 1700/1724 18009KT P6SM BKN040
     FM170400 VRB03KT P6SM SCT040
     FM171000 VRB03KT 4SM BR SKC
      TEMPO 1711/1714 1 1/2SM BR
     FM171500 VRB03KT P6SM SCT250
     FM171800 10006KT P6SM BKN040=

USA.gov is the U.S. government's official web portal to all federal, state and local government web resources and services.